Aérodrome :
LOGIN :

S'inscrire | Disclaimer

   EN    FR    IT 

 










Légende :    VFR   VFR Marginal   IFR   IFR Intensif   IFR Très Intensif
Visi : 
Plafond : 
>= 8 km
>= 3000ft
5 à 8 km
1000 à 3000 ft
1500m à 5 km
500 à 1000 ft
800 à 1500m
200 à 500 ft
< 800m
< 200 ft
Symboles :   Orages  Brouillard  Fortes neiges  Fortes précipitations  Vent > 20 kt
SIGMETs :   Divers  Orages  Givrage  Turbulence  Onde Orograph.  Cendres Volcan.







- Altitude de l'aérodrome : 778 ft
- Code IATA : BRQ


LKTB - Brno-Turany

DERNIER METAR :
  • 281000Z 17008G20KT 140V200 CAVOK 31/14 Q1002 NOSIG

METARs EXPIRÉS :
  • 280930Z 13013KT CAVOK 30/15 Q1002 NOSIG
  • 280900Z 17007KT CAVOK 29/15 Q1002 NOSIG
  • 280830Z 17009KT 130V210 CAVOK 28/15 Q1002 NOSIG
  • 280800Z 16007KT 130V200 9999 FEW047 27/15 Q1003 NOSIG
  • 280730Z 18007KT 140V200 CAVOK 26/15 Q1003 NOSIG

TAF TAF LKTB
Valide du 28 à 06h jusqu'au 29 à 12h UTC


280500Z 2806/2912 15008KT CAVOK
BECMG 2807/2809 13010KT
TEMPO 2809/2818 13018G38KT
PROB40
TEMPO 2817/2821 5000 TSRA BKN025CB
TEMPO 2821/2906 7000 SHRA SCT035TCU
PROB30
TEMPO 2821/2902 20022G36KT 3000 TSRA BKN030CB
TEMPO 2910/2912 7000 SHRA SCT035TCU
Pas de NOTAMs connus pour ce terrain.



MET'MAP, la Météo Aéronautique d'un coup d'oeil ! - Copyright ORBIFLY Décembre 2007 - Disclaimer

ORBIFLY MET'MAP TEAM :

Programmation & Développement : Alexandra Zaïnal
Conception & Développement : Baudouin d'Aumeries
Co-Programmation & Développement : Marc-Olivier Méhu
Soutien technique & logistique : Manuel Goepfert

Contact : metmap@orbifly.com




SOURCES & CREDITS :

   NOAA